My Meet Scores
Vanessa DiVincenzo, Gymkhana Gymnastics Club and Dance Studio - MyMeetScores.com
Top100 | Top Teams | Upcoming Meets | Completed Meets | Latest | Add Scores | Help| Support | Bookmark and Share

Vanessa DiVincenzo, Gymkhana Gymnastics Club and Dance Studio
Personal Bests
LevelVault BarsBeamFloorAA
39.8509.750 9.4259.70038.275
49.3508.750 9.3009.47536.425
59.4508.425 9.1759.12536.150
69.4509.250 9.2009.40037.125
Meet Scores
Date Meet Team Session Level Division Vault Bars Beam Floor AA
2021-05-14 Level 6 and Xcel Silver Regionals Gymkhana Gymnastics Club and Dance Studio 3A 6 Jr C2 9.325 3 9.225 5 9.200 6T 9.375 7T 37.125 3
2021-04-15 Illinois level 6 & Xcel Silver State Champion Gymkhana Gymnastics Club and Dance Studio 08 6 Sr A 9.450 2 9.000 15 8.725 23T 9.400 16 36.575 9
2021-03-12 LUCKY INVITATIONAL Gymkhana Gymnastics Club and Dance Studio A03 6 Jr B 8.800 3T 8.875 12T 9.125 8T 9.275 17 36.075 8
2021-02-19 Women's Midwest Open 2021 Gymkhana Gymnastics Club and Dance Studio 07B 6 Junior A 9.100 3 9.250 7 8.800 13 9.275 8T 36.425 7
2020-02-21 Kinetic Classic Gymkhana Gymnastics Club and Dance Studio 03 5 Middle 9.450 12T 8.425 52T 9.175 37T 9.100 24T 36.150 29
2020-02-07 Harley Meet Womens - Midwest Twisters Gymkhana Gymnastics Club and Dance Studio O09 5 Jr C 9.075 1 7.300 12 8.400 12 9.075 4 33.850 10
2020-01-24 King Arthur Invitational Gymkhana Gymnastics Club and Dance Studio 5B 5 SR A 9.050 5T 8.000 14T 8.250 12T 9.050 3 34.350 10
2020-01-10 St Jude Benefit Meet Gymkhana Gymnastics Club and Dance Studio 2A 5 Jr 8.750 15 7.000 17 8.900 8 8.025 15 32.675 15
2019-11-08 Illinois Judges Cup Gymkhana Gymnastics Club and Dance Studio P3 5 All Ages 8.775 16 7.475 34T 8.050 32T 9.125 11 33.425 27
2019-03-22 Illinois Gymnastics State Championships Gymkhana Gymnastics Club and Dance Studio 4 4 JR A 8.900 13 8.750 22 9.300 8T 9.475 4 36.425 12
2019-02-23 Kinetic Classic 2019 Gymkhana Gymnastics Club and Dance Studio 1 4 Middle 8.850 7 8.550 27 9.150 14T 9.150 6T 35.700 15
2019-02-08 Midwest Twisters Harley Meet Womens Gymkhana Gymnastics Club and Dance Studio T10 4 10a 8.900 5 7.950 13 9.025 10 9.100 9 34.975 11T
2019-01-18 CGA Coaches Spectacular Gymkhana Gymnastics Club and Dance Studio 9A 4 9C to 10A 9.075 1 8.450 12 9.250 1 9.125 2 35.900 2
2019-01-11 St Jude Benefit Meet Gymkhana Gymnastics Club and Dance Studio 5A 4 Sr A 9.350 1 8.200 7 9.000 8 9.300 4 35.850 2
2018-05-03 Illinois USA Gymnastics Level 3 State Championships Gymkhana Gymnastics Club and Dance Studio 2 3 Jr B 9.850 1 9.450 3T 9.425 2 9.550 2 38.275 1
2018-02-16 Big Classic Gymkhana Gymnastics Club and Dance Studio 6B 3 Child C 9.225 3T 9.675 2 9.225 4 9.700 1 37.825 1
2018-02-08 Hal's Harley-Davidson Invite Womens Gymkhana Gymnastics Club and Dance Studio T07 3 9 yrs 9.300 3 9.725 1T 9.375 3 9.375 2 37.775 2
2018-01-19 2018 Bravo Classic Gymkhana Gymnastics Club and Dance Studio 5B 3 Jr 9.075 15 9.375 1 9.000 10T 9.250 2 36.700 4T
2018-01-12 St Jude Benefit Meet Gymkhana Gymnastics Club and Dance Studio 6A 3 JrC 9.525 3 9.750 1 9.200 1 9.500 1 37.975 1
2017-03-30 2017 Illinois Level 3 & 5 State Gymkhana Gymnastics Club and Dance Studio All 3 Yh A 9.075 21 9.100 14T 9.050 10 9.250 7T 36.475 11
2017-02-17 Big Classic Gymkhana Gymnastics Club and Dance Studio B 3 Child B 9.150 15T 9.000 8T 9.175 3 8.800 26 36.125 7
2017-01-20 80s Throwback Classic Gymkhana Gymnastics Club and Dance Studio 2 3 Child 9.100 3T 8.450 3 8.350 5 8.850 2 34.750 3
Get your scores on
a t-shirt, pin, or hoodie